createdAt,value
2022-12-14T00:00:51.942Z,52.45
2022-12-14T00:01:55.168Z,55.45
2022-12-14T00:02:57.965Z,51.90
2022-12-14T00:04:00.784Z,45.33
2022-12-14T00:05:03.530Z,48.35
2022-12-14T00:06:22.404Z,48.10
2022-12-14T00:07:24.997Z,55.35
2022-12-14T00:08:28.069Z,52.50
2022-12-14T00:09:30.952Z,49.15
2022-12-14T00:10:34.964Z,50.67
2022-12-14T00:11:37.637Z,50.63
2022-12-14T00:12:40.537Z,53.58
2022-12-14T00:13:44.043Z,54.40
2022-12-14T00:14:51.851Z,47.45
2022-12-14T00:15:54.698Z,46.67
2022-12-14T00:16:57.351Z,55.15
2022-12-14T00:18:00.434Z,55.08
2022-12-14T00:19:05.471Z,44.30
2022-12-14T00:20:09.341Z,52.95
2022-12-14T00:21:13.849Z,45.90
2022-12-14T00:22:16.480Z,46.60
2022-12-14T00:23:19.211Z,53.22
2022-12-14T00:24:21.943Z,49.38
2022-12-14T00:25:25.212Z,50.33
2022-12-14T00:26:32.005Z,49.83
2022-12-14T00:27:34.936Z,50.90
2022-12-14T00:28:38.477Z,57.25
2022-12-14T00:29:41.313Z,51.15
2022-12-14T00:30:43.959Z,52.08
2022-12-14T00:31:48.739Z,51.70
2022-12-14T00:32:51.817Z,52.28
2022-12-14T00:33:55.430Z,46.65
2022-12-14T00:34:58.446Z,47.88
2022-12-14T00:36:02.108Z,48.83
2022-12-14T00:37:04.946Z,60.92
2022-12-14T00:38:07.623Z,54.65
2022-12-14T00:39:10.398Z,57.15
2022-12-14T00:40:13.089Z,47.45
2022-12-14T00:41:15.965Z,55.95
2022-12-14T00:42:18.638Z,51.50
2022-12-14T00:43:22.578Z,50.40
2022-12-14T00:44:25.218Z,55.17
2022-12-14T00:45:27.957Z,52.92
2022-12-14T00:46:30.628Z,60.97
2022-12-14T00:47:39.016Z,54.75
2022-12-14T00:48:43.510Z,40.40
2022-12-14T00:49:46.240Z,61.60
2022-12-14T00:50:52.803Z,60.33
2022-12-14T00:51:55.902Z,57.90
2022-12-14T00:52:58.483Z,63.60
2022-12-14T00:54:01.135Z,59.47
2022-12-14T00:55:04.047Z,60.97
2022-12-14T00:56:08.284Z,59.60
2022-12-14T00:57:11.166Z,57.15
2022-12-14T00:58:15.459Z,59.20
2022-12-14T00:59:22.902Z,57.70
2022-12-14T01:00:28.424Z,60.72
2022-12-14T01:01:31.148Z,60.72
2022-12-14T01:02:33.960Z,56.03
2022-12-14T01:03:36.958Z,59.50
2022-12-14T01:04:39.764Z,63.78
2022-12-14T01:05:42.476Z,66.18
2022-12-14T01:06:53.390Z,63.67
2022-12-14T01:07:56.601Z,61.92
2022-12-14T01:08:59.314Z,58.13
2022-12-14T01:10:02.088Z,62.72
2022-12-14T01:11:06.541Z,65.22
2022-12-14T01:12:09.307Z,65.68
2022-12-14T01:13:12.179Z,70.35
2022-12-14T01:14:17.103Z,63.92
2022-12-14T01:15:19.775Z,66.10
2022-12-14T01:16:22.519Z,68.13
2022-12-14T01:17:25.330Z,64.68
2022-12-14T01:18:27.928Z,71.30
2022-12-14T01:19:31.127Z,71.85
2022-12-14T01:20:33.775Z,74.78
2022-12-14T01:21:36.371Z,70.93
2022-12-14T01:22:39.199Z,66.75
2022-12-14T01:23:42.954Z,59.83
2022-12-14T01:24:45.582Z,65.07
2022-12-14T01:25:48.962Z,65.97
2022-12-14T01:26:51.702Z,84.80
2022-12-14T01:27:54.617Z,62.55
2022-12-14T01:28:59.411Z,68.60
2022-12-14T01:30:02.253Z,63.95
2022-12-14T01:31:09.596Z,60.55
2022-12-14T01:32:12.380Z,64.88
2022-12-14T01:33:15.003Z,65.10
2022-12-14T01:34:18.055Z,58.13
2022-12-14T01:35:20.766Z,70.80
2022-12-14T01:36:26.342Z,67.35
2022-12-14T01:37:28.995Z,57.17
2022-12-14T01:38:31.902Z,64.82
2022-12-14T01:39:34.536Z,66.40
2022-12-14T01:40:37.428Z,61.95
2022-12-14T01:41:45.405Z,64.43
2022-12-14T01:42:48.118Z,61.65
2022-12-14T01:43:58.874Z,60.03
2022-12-14T01:46:04.291Z,59.15
2022-12-14T01:47:27.072Z,65.75
2022-12-14T01:48:29.892Z,64.10
2022-12-14T01:49:38.792Z,62.65
2022-12-14T01:50:44.498Z,63.03
2022-12-14T01:51:52.657Z,53.30
2022-12-14T01:53:00.807Z,61.50
2022-12-14T01:54:06.858Z,65.00
2022-12-14T01:55:22.896Z,62.78
2022-12-14T01:56:25.943Z,61.17
2022-12-14T01:57:36.855Z,65.28
2022-12-14T01:58:40.301Z,59.55
2022-12-14T01:59:44.439Z,59.25
2022-12-14T02:00:47.265Z,55.65
2022-12-14T02:01:50.520Z,62.22
2022-12-14T02:03:26.272Z,61.65
2022-12-14T02:04:29.755Z,54.55
2022-12-14T02:05:35.666Z,56.80
2022-12-14T02:06:40.938Z,65.85
2022-12-14T02:07:48.975Z,64.32
2022-12-14T02:08:53.189Z,64.50
2022-12-14T02:09:58.510Z,62.35
2022-12-14T02:11:02.437Z,59.67
2022-12-14T02:12:10.933Z,54.10
2022-12-14T02:13:36.603Z,60.60
2022-12-14T02:14:39.629Z,56.78
2022-12-14T02:15:42.646Z,51.42
2022-12-14T02:16:45.308Z,53.72
2022-12-14T02:17:48.693Z,61.08
2022-12-14T02:18:51.348Z,54.47
2022-12-14T02:19:54.184Z,58.63
2022-12-14T02:21:11.593Z,47.28
2022-12-14T02:22:42.217Z,51.83
2022-12-14T02:24:19.278Z,66.80
2022-12-14T02:25:39.495Z,55.60
2022-12-14T02:27:06.983Z,50.95
2022-12-14T02:28:15.662Z,51.47
2022-12-14T02:29:24.354Z,52.30
2022-12-14T02:30:27.687Z,51.63
2022-12-14T02:32:11.371Z,62.60
2022-12-14T02:33:19.766Z,50.20
2022-12-14T02:34:56.897Z,49.05
2022-12-14T02:36:08.287Z,53.00
2022-12-14T02:37:49.730Z,52.15
2022-12-14T02:39:03.144Z,51.35
2022-12-14T02:40:11.576Z,52.45
2022-12-14T02:41:40.948Z,59.25
2022-12-14T02:43:01.180Z,57.40
2022-12-14T02:44:15.902Z,55.08
2022-12-14T02:45:26.430Z,54.30
2022-12-14T02:46:30.137Z,55.17
2022-12-14T02:47:41.463Z,53.67
2022-12-14T02:48:49.865Z,60.78
2022-12-14T02:50:22.784Z,50.30
2022-12-14T02:51:37.483Z,48.83
2022-12-14T02:53:00.360Z,51.78
2022-12-14T02:54:08.502Z,50.58
2022-12-14T02:55:36.603Z,59.70
2022-12-14T02:56:52.012Z,44.30
2022-12-14T02:58:00.506Z,47.15
2022-12-14T02:59:04.023Z,51.38
2022-12-14T03:00:07.558Z,57.20
2022-12-14T03:01:14.741Z,58.03
2022-12-14T03:02:18.120Z,59.95
2022-12-14T03:03:21.110Z,54.65
2022-12-14T03:04:24.483Z,59.38
2022-12-14T03:05:27.321Z,54.00
2022-12-14T03:06:30.415Z,57.85
2022-12-14T03:07:36.929Z,59.20
2022-12-14T03:08:39.833Z,58.90
2022-12-14T03:09:42.670Z,53.65
2022-12-14T03:11:00.479Z,61.05
2022-12-14T03:12:09.246Z,59.88
2022-12-14T03:13:15.945Z,58.33
2022-12-14T03:14:32.234Z,57.60
2022-12-14T03:15:37.272Z,59.03
2022-12-14T03:16:46.467Z,63.28
2022-12-14T03:17:52.255Z,68.32
2022-12-14T03:19:24.207Z,65.30
2022-12-14T03:20:29.666Z,58.08
2022-12-14T03:21:35.336Z,61.55
2022-12-14T03:23:16.067Z,59.83
2022-12-14T03:24:26.320Z,57.40
2022-12-14T03:25:38.644Z,65.47
2022-12-14T03:26:52.046Z,62.50
2022-12-14T03:28:05.605Z,71.32
2022-12-14T03:29:11.477Z,55.15
2022-12-14T03:30:23.714Z,57.10
2022-12-14T03:31:56.562Z,63.05
2022-12-14T03:33:03.894Z,64.00
2022-12-14T03:34:13.488Z,64.97
2022-12-14T03:35:39.447Z,62.92
2022-12-14T03:36:55.864Z,62.17
2022-12-14T03:38:13.631Z,59.80
2022-12-14T03:39:26.098Z,60.10
2022-12-14T03:40:34.921Z,69.07
2022-12-14T03:42:07.473Z,68.65
2022-12-14T03:43:28.209Z,64.68
2022-12-14T03:44:49.065Z,66.28
2022-12-14T03:46:13.928Z,72.43
2022-12-14T03:47:16.518Z,65.25
2022-12-14T03:48:40.344Z,67.63
2022-12-14T03:50:18.175Z,68.85
2022-12-14T03:51:39.308Z,57.15
2022-12-14T03:53:26.335Z,59.38
2022-12-14T03:54:32.023Z,59.83
2022-12-14T03:55:46.504Z,57.15
2022-12-14T03:57:03.070Z,62.30
2022-12-14T03:58:33.182Z,54.28
2022-12-14T03:59:39.978Z,53.55
2022-12-14T04:01:02.938Z,59.58
2022-12-14T04:02:11.871Z,56.35
2022-12-14T04:03:32.276Z,64.75
2022-12-14T04:04:44.943Z,59.85
2022-12-14T04:05:57.328Z,60.25
2022-12-14T04:07:11.073Z,56.20
2022-12-14T04:08:23.434Z,58.28
2022-12-14T04:09:26.056Z,48.20
2022-12-14T04:11:00.142Z,61.00
2022-12-14T04:12:57.116Z,54.60
2022-12-14T04:14:32.741Z,56.55
2022-12-14T04:15:54.828Z,50.67
2022-12-14T04:17:16.842Z,53.33
2022-12-14T04:18:44.078Z,58.53
2022-12-14T04:19:52.081Z,45.53
2022-12-14T04:21:26.061Z,63.92
2022-12-14T04:22:31.239Z,49.85
2022-12-14T04:23:57.465Z,57.72
2022-12-14T04:25:25.014Z,58.20
2022-12-14T04:26:30.516Z,47.50
2022-12-14T04:27:50.457Z,49.60
2022-12-14T04:29:25.927Z,56.03
2022-12-14T04:30:29.918Z,53.42
2022-12-14T04:31:34.202Z,52.20
2022-12-14T04:32:39.767Z,57.85
2022-12-14T04:33:47.576Z,61.17
2022-12-14T04:35:04.049Z,58.22
2022-12-14T04:36:07.372Z,53.92
2022-12-14T04:37:14.413Z,60.45
2022-12-14T04:38:22.511Z,53.30
2022-12-14T04:39:46.036Z,51.08
2022-12-14T04:40:52.607Z,59.92
2022-12-14T04:41:56.748Z,59.53
2022-12-14T04:43:06.071Z,49.60
2022-12-14T04:44:37.037Z,52.80
2022-12-14T04:46:47.208Z,51.50
2022-12-14T04:47:56.831Z,56.92
2022-12-14T04:49:12.476Z,53.38
2022-12-14T04:50:30.083Z,57.05
2022-12-14T04:51:38.656Z,58.33
2022-12-14T04:52:46.700Z,53.35
2022-12-14T04:53:53.458Z,63.15
2022-12-14T04:55:20.926Z,58.50
2022-12-14T04:56:29.982Z,53.63
2022-12-14T04:57:46.703Z,52.88
2022-12-14T04:58:49.426Z,49.25
2022-12-14T04:59:52.798Z,59.22
2022-12-14T05:01:14.098Z,52.40
2022-12-14T05:02:21.986Z,59.63
2022-12-14T05:03:29.106Z,62.67
2022-12-14T05:04:57.938Z,65.03
2022-12-14T05:06:11.999Z,51.85
2022-12-14T05:07:19.016Z,53.80
2022-12-14T05:08:21.707Z,57.72
2022-12-14T05:09:41.040Z,60.55
2022-12-14T05:11:21.885Z,55.38
2022-12-14T05:12:31.141Z,52.90
2022-12-14T05:13:43.283Z,61.20
2022-12-14T05:14:57.342Z,50.78
2022-12-14T05:16:00.455Z,55.47
2022-12-14T05:17:08.843Z,65.00
2022-12-14T05:18:12.455Z,65.32
2022-12-14T05:19:15.804Z,57.38
2022-12-14T05:20:23.215Z,54.03
2022-12-14T05:21:44.438Z,61.83
2022-12-14T05:22:47.241Z,59.15
2022-12-14T05:23:49.979Z,63.65
2022-12-14T05:24:52.756Z,60.85
2022-12-14T05:25:55.658Z,60.10
2022-12-14T05:26:58.373Z,65.97
2022-12-14T05:28:01.184Z,60.67
2022-12-14T05:29:04.012Z,67.90
2022-12-14T05:30:07.350Z,62.65
2022-12-14T05:31:10.351Z,69.47
2022-12-14T05:32:13.758Z,66.32
2022-12-14T05:33:20.721Z,65.35
2022-12-14T05:34:23.794Z,62.20
2022-12-14T05:35:26.568Z,72.78
2022-12-14T05:36:29.488Z,58.65
2022-12-14T05:37:32.464Z,62.72
2022-12-14T05:38:35.065Z,61.03
2022-12-14T05:39:37.700Z,56.53
2022-12-14T05:40:40.518Z,62.58
2022-12-14T05:41:43.445Z,64.53
2022-12-14T05:42:49.848Z,66.32
2022-12-14T05:43:56.699Z,53.97
2022-12-14T05:44:59.416Z,59.38
2022-12-14T05:46:04.133Z,75.78
2022-12-14T05:47:06.787Z,76.78
2022-12-14T05:48:09.885Z,75.28
2022-12-14T05:49:12.676Z,76.53
2022-12-14T05:50:15.402Z,62.20
2022-12-14T05:51:18.090Z,64.35
2022-12-14T05:52:20.737Z,72.53
2022-12-14T05:53:23.762Z,61.63
2022-12-14T05:54:26.503Z,63.00
2022-12-14T05:55:29.126Z,64.22
2022-12-14T05:56:32.082Z,61.63
2022-12-14T05:57:34.682Z,61.63
2022-12-14T05:58:38.065Z,70.75
2022-12-14T05:59:40.683Z,73.65
2022-12-14T06:00:43.447Z,70.47
2022-12-14T06:01:50.011Z,63.58
2022-12-14T06:02:55.611Z,62.63
2022-12-14T06:03:58.446Z,57.38
2022-12-14T06:05:01.096Z,69.75
2022-12-14T06:06:09.210Z,64.00
2022-12-14T06:07:12.657Z,64.93
2022-12-14T06:08:15.369Z,60.45
2022-12-14T06:09:18.710Z,72.38
2022-12-14T06:10:21.465Z,73.90
2022-12-14T06:11:24.404Z,72.60
2022-12-14T06:12:27.040Z,64.72
2022-12-14T06:13:30.039Z,67.75
2022-12-14T06:14:33.079Z,79.78
2022-12-14T06:15:35.761Z,69.80
2022-12-14T06:16:43.092Z,66.55
2022-12-14T06:17:46.719Z,72.93
2022-12-14T06:18:53.839Z,70.72
2022-12-14T06:19:56.491Z,74.13
2022-12-14T06:20:59.132Z,71.38
2022-12-14T06:22:01.884Z,70.35
2022-12-14T06:23:04.599Z,61.80
2022-12-14T06:24:07.765Z,68.90
2022-12-14T06:25:10.572Z,72.43
2022-12-14T06:26:14.247Z,65.95
2022-12-14T06:27:17.135Z,58.08
2022-12-14T06:28:19.712Z,57.00
2022-12-14T06:29:22.464Z,57.65
2022-12-14T06:30:25.246Z,63.10
2022-12-14T06:31:30.428Z,60.75
2022-12-14T06:32:33.201Z,64.95
2022-12-14T06:33:36.110Z,51.45
2022-12-14T06:34:40.756Z,66.32
2022-12-14T06:35:46.127Z,53.92
2022-12-14T06:36:48.774Z,65.20
2022-12-14T06:37:51.401Z,68.45
2022-12-14T06:38:55.383Z,53.63
2022-12-14T06:39:58.814Z,61.08
2022-12-14T06:41:01.511Z,59.15
2022-12-14T06:42:04.873Z,55.83
2022-12-14T06:43:07.507Z,60.75
2022-12-14T06:44:13.564Z,63.45
2022-12-14T06:45:16.375Z,48.75
2022-12-14T06:46:21.149Z,53.08
2022-12-14T06:47:23.974Z,59.88
2022-12-14T06:48:26.588Z,57.05
2022-12-14T06:49:29.309Z,59.70
2022-12-14T06:50:31.968Z,57.78
2022-12-14T06:51:40.810Z,59.00
2022-12-14T06:52:43.558Z,61.88
2022-12-14T06:53:46.783Z,52.63
2022-12-14T06:54:49.820Z,53.10
2022-12-14T06:55:52.410Z,58.72
2022-12-14T06:56:55.189Z,59.63
2022-12-14T06:57:57.863Z,52.15
2022-12-14T06:59:00.471Z,55.63
2022-12-14T07:00:03.802Z,59.33
2022-12-14T07:01:11.101Z,56.50
2022-12-14T07:02:14.145Z,57.22
2022-12-14T07:03:17.270Z,59.88
2022-12-14T07:04:21.557Z,51.55
2022-12-14T07:05:25.284Z,48.90
2022-12-14T07:06:34.014Z,55.60
2022-12-14T07:07:37.019Z,60.67
2022-12-14T07:08:40.155Z,62.05
2022-12-14T07:09:42.900Z,56.05
2022-12-14T07:10:45.597Z,51.00
2022-12-14T07:11:51.107Z,48.72
2022-12-14T07:12:54.087Z,44.85
2022-12-14T07:13:57.319Z,45.95
2022-12-14T07:14:59.978Z,49.55
2022-12-14T07:16:04.940Z,51.08
2022-12-14T07:17:07.647Z,45.88
2022-12-14T07:18:10.653Z,50.83
2022-12-14T07:19:13.257Z,52.83
2022-12-14T07:20:16.112Z,54.90
2022-12-14T07:21:20.654Z,52.50
2022-12-14T07:22:23.277Z,59.00
2022-12-14T07:23:28.278Z,50.88
2022-12-14T07:24:31.317Z,54.33
2022-12-14T07:25:34.017Z,51.60
2022-12-14T07:26:37.528Z,51.65
2022-12-14T07:27:40.192Z,55.00
2022-12-14T07:28:43.510Z,59.75
2022-12-14T07:29:46.219Z,56.20
2022-12-14T07:30:48.943Z,59.25
2022-12-14T07:31:51.720Z,59.28
2022-12-14T07:32:54.480Z,54.47
2022-12-14T07:33:58.719Z,60.75
2022-12-14T07:35:01.509Z,53.58
2022-12-14T07:36:07.435Z,56.78
2022-12-14T07:37:10.220Z,61.20
2022-12-14T07:38:12.991Z,46.85
2022-12-14T07:39:15.763Z,49.15
2022-12-14T07:40:18.489Z,47.25
2022-12-14T07:41:23.846Z,54.15
2022-12-14T07:42:26.499Z,56.92
2022-12-14T07:43:29.676Z,52.10
2022-12-14T07:44:32.584Z,47.10
2022-12-14T07:45:35.245Z,46.50
2022-12-14T07:46:38.351Z,55.20
2022-12-14T07:47:41.085Z,50.47
2022-12-14T07:48:45.504Z,53.42
2022-12-14T07:49:48.267Z,52.22
2022-12-14T07:50:51.084Z,52.00
2022-12-14T07:51:53.958Z,53.53
2022-12-14T07:52:59.298Z,60.88
2022-12-14T07:54:03.502Z,47.28
2022-12-14T07:55:06.706Z,48.47
2022-12-14T07:56:12.686Z,56.08
2022-12-14T07:57:16.256Z,57.42
2022-12-14T07:58:18.855Z,57.97
2022-12-14T07:59:21.517Z,47.60
2022-12-14T08:00:24.269Z,47.75
2022-12-14T08:01:32.482Z,59.75
2022-12-14T08:02:35.360Z,54.15
2022-12-14T08:03:42.015Z,53.95
2022-12-14T08:04:44.744Z,55.30
2022-12-14T08:05:47.359Z,52.20
2022-12-14T08:06:50.152Z,45.15
2022-12-14T08:07:52.976Z,46.42
2022-12-14T08:08:55.959Z,58.83
2022-12-14T08:09:58.725Z,51.20
2022-12-14T08:11:01.802Z,48.28
2022-12-14T08:12:04.766Z,48.40
2022-12-14T08:13:07.334Z,45.47
2022-12-14T08:14:19.364Z,49.75
2022-12-14T08:15:22.011Z,50.70
2022-12-14T08:16:25.611Z,52.55
2022-12-14T08:17:28.412Z,51.97
2022-12-14T08:18:31.510Z,49.83
2022-12-14T08:19:34.102Z,47.00
2022-12-14T08:20:36.919Z,56.05
2022-12-14T08:21:40.110Z,50.90
2022-12-14T08:22:42.730Z,50.03
2022-12-14T08:23:45.329Z,57.25
2022-12-14T08:24:49.324Z,49.00
2022-12-14T08:25:56.476Z,53.92
2022-12-14T08:26:59.257Z,50.85
2022-12-14T08:28:02.737Z,56.10
2022-12-14T08:29:05.901Z,51.72
2022-12-14T08:30:09.214Z,50.97
2022-12-14T08:31:17.217Z,50.22
2022-12-14T08:32:20.297Z,54.03
2022-12-14T08:33:23.729Z,48.60
2022-12-14T08:34:26.499Z,50.13
2022-12-14T08:35:29.202Z,49.95
2022-12-14T08:36:34.395Z,53.92
2022-12-14T08:37:37.186Z,60.10
2022-12-14T08:38:41.057Z,47.42
2022-12-14T08:39:43.732Z,51.20
2022-12-14T08:40:52.153Z,59.90
2022-12-14T08:41:55.605Z,55.25
2022-12-14T08:42:58.264Z,56.88
2022-12-14T08:44:02.131Z,59.75
2022-12-14T08:45:05.297Z,56.28
2022-12-14T08:46:09.345Z,52.92
2022-12-14T08:47:12.211Z,54.70
2022-12-14T08:48:14.853Z,63.25
2022-12-14T08:49:17.459Z,59.10
2022-12-14T08:50:20.114Z,54.50
2022-12-14T08:51:24.310Z,58.65
2022-12-14T08:52:28.337Z,53.15
2022-12-14T08:53:32.250Z,54.88
2022-12-14T08:54:35.580Z,57.55
2022-12-14T08:55:38.625Z,56.70
2022-12-14T08:56:41.653Z,54.35
2022-12-14T08:57:44.327Z,62.67
2022-12-14T08:58:47.363Z,58.60
2022-12-14T09:00:01.445Z,64.32
2022-12-14T09:01:09.925Z,61.72
2022-12-14T09:02:12.992Z,55.80
2022-12-14T09:03:16.816Z,59.28
2022-12-14T09:04:20.115Z,55.58
2022-12-14T09:05:23.072Z,62.65
2022-12-14T09:06:27.928Z,51.83
2022-12-14T09:07:31.169Z,51.85
2022-12-14T09:08:35.053Z,53.80
2022-12-14T09:09:37.798Z,55.95
2022-12-14T09:10:40.551Z,60.83
2022-12-14T09:11:43.979Z,66.00
2022-12-14T09:12:46.670Z,59.40
2022-12-14T09:13:52.873Z,61.33
2022-12-14T09:14:55.495Z,59.47
2022-12-14T09:16:00.359Z,61.72
2022-12-14T09:17:04.222Z,55.30
2022-12-14T09:18:06.973Z,64.30
2022-12-14T09:19:09.668Z,64.63
2022-12-14T09:20:13.713Z,63.22
2022-12-14T09:21:18.087Z,55.33
2022-12-14T09:22:21.740Z,56.97
2022-12-14T09:23:26.590Z,54.55
2022-12-14T09:24:29.784Z,50.35
2022-12-14T09:25:32.449Z,60.53
2022-12-14T09:26:35.154Z,56.72
2022-12-14T09:27:37.889Z,61.63
2022-12-14T09:28:42.228Z,62.55
2022-12-14T09:29:44.855Z,58.00
2022-12-14T09:30:47.544Z,62.72
2022-12-14T09:31:50.381Z,60.67
2022-12-14T09:32:53.339Z,52.15
2022-12-14T09:33:56.980Z,55.05
2022-12-14T09:34:59.638Z,56.40
2022-12-14T09:36:11.955Z,53.20
2022-12-14T09:37:14.548Z,53.30
2022-12-14T09:38:17.170Z,46.08
2022-12-14T09:39:19.876Z,50.25
2022-12-14T09:40:24.834Z,53.53
2022-12-14T09:41:36.520Z,56.55
2022-12-14T09:42:39.184Z,48.63
2022-12-14T09:43:44.433Z,58.90
2022-12-14T09:44:59.047Z,52.58
2022-12-14T09:46:35.948Z,57.53
2022-12-14T09:48:02.439Z,51.67
2022-12-14T09:49:05.313Z,56.63
2022-12-14T09:50:14.549Z,50.35
2022-12-14T09:51:18.896Z,59.30
2022-12-14T09:52:40.162Z,68.95
2022-12-14T09:53:44.761Z,57.90
2022-12-14T09:54:49.955Z,58.25
2022-12-14T09:55:55.636Z,55.42
2022-12-14T09:57:11.753Z,66.22
2022-12-14T09:58:17.176Z,61.97
2022-12-14T09:59:21.195Z,56.53
2022-12-14T10:00:23.818Z,58.60
2022-12-14T10:01:35.729Z,58.20
2022-12-14T10:03:00.427Z,49.75
2022-12-14T10:04:09.846Z,65.18
2022-12-14T10:05:18.081Z,60.88
2022-12-14T10:06:43.387Z,73.38
2022-12-14T10:07:56.317Z,57.50
2022-12-14T10:09:36.066Z,58.22
2022-12-14T10:10:53.482Z,63.20
2022-12-14T10:12:33.950Z,68.18
2022-12-14T10:13:39.668Z,56.25
2022-12-14T10:15:09.064Z,55.38
2022-12-14T10:16:32.302Z,58.10
2022-12-14T10:17:46.641Z,58.05
2022-12-14T10:19:00.522Z,66.32
2022-12-14T10:20:30.065Z,55.78
2022-12-14T10:21:57.844Z,52.42
2022-12-14T10:23:02.134Z,55.15
2022-12-14T10:24:06.403Z,55.78
2022-12-14T10:25:11.803Z,58.97
2022-12-14T10:26:17.174Z,57.80
2022-12-14T10:27:24.838Z,57.45
2022-12-14T10:29:01.403Z,55.10
2022-12-14T10:30:15.111Z,57.80
2022-12-14T10:31:35.350Z,51.42
2022-12-14T10:32:40.071Z,55.22
2022-12-14T10:33:46.592Z,57.45
2022-12-14T10:34:49.404Z,62.78
2022-12-14T10:35:54.385Z,58.13
2022-12-14T10:37:12.236Z,58.75
2022-12-14T10:38:52.782Z,58.67
2022-12-14T10:40:27.483Z,60.78
2022-12-14T10:41:44.093Z,57.55
2022-12-14T10:43:29.949Z,52.75
2022-12-14T10:45:39.662Z,65.82
2022-12-14T10:46:49.136Z,59.67
2022-12-14T10:48:00.570Z,51.28
2022-12-14T10:49:11.855Z,47.53
2022-12-14T10:50:20.512Z,59.80
2022-12-14T10:51:39.431Z,63.72
2022-12-14T10:52:43.421Z,62.72
2022-12-14T10:54:03.834Z,62.22
2022-12-14T10:55:15.506Z,63.10
2022-12-14T10:56:26.198Z,52.67
2022-12-14T10:58:32.712Z,58.35
2022-12-14T10:59:43.702Z,50.53
2022-12-14T11:00:54.969Z,46.13
2022-12-14T11:02:14.120Z,58.88
2022-12-14T11:03:17.060Z,52.25
2022-12-14T11:04:29.958Z,57.50
2022-12-14T11:05:46.038Z,54.92
2022-12-14T11:06:48.890Z,61.45
2022-12-14T11:07:51.739Z,56.80
2022-12-14T11:08:55.758Z,65.60
2022-12-14T11:10:19.054Z,58.67
2022-12-14T11:11:24.503Z,54.10
2022-12-14T11:12:27.606Z,70.57
2022-12-14T11:13:30.407Z,63.38
2022-12-14T11:14:35.885Z,61.10
2022-12-14T11:15:42.882Z,58.28
2022-12-14T11:16:45.610Z,66.03
2022-12-14T11:17:48.732Z,55.30
2022-12-14T11:18:59.473Z,56.28
2022-12-14T11:21:31.040Z,53.75
2022-12-14T11:22:45.187Z,58.95
2022-12-14T11:23:54.595Z,52.28
2022-12-14T11:24:57.233Z,53.60
2022-12-14T11:26:05.296Z,53.53
2022-12-14T11:27:10.560Z,48.63
2022-12-14T11:28:37.770Z,47.25
2022-12-14T11:29:41.367Z,56.08
2022-12-14T11:31:03.152Z,48.13
2022-12-14T11:32:06.638Z,48.08
2022-12-14T11:33:16.716Z,54.05
2022-12-14T11:34:28.951Z,47.42
2022-12-14T11:35:31.666Z,49.92
2022-12-14T11:36:41.450Z,52.42
2022-12-14T11:37:44.199Z,50.00
2022-12-14T11:38:56.004Z,47.25
2022-12-14T11:40:04.197Z,43.38
2022-12-14T11:41:11.606Z,55.45
2022-12-14T11:42:19.468Z,46.38
2022-12-14T11:43:30.307Z,51.00
2022-12-14T11:45:39.347Z,46.15
2022-12-14T11:46:51.518Z,48.72
2022-12-14T11:48:10.841Z,48.80
2022-12-14T11:49:23.724Z,49.45
2022-12-14T11:50:26.490Z,46.22
2022-12-14T11:51:29.308Z,51.80
2022-12-14T11:52:38.000Z,48.78
2022-12-14T11:53:41.664Z,45.30
2022-12-14T11:55:03.068Z,48.60
2022-12-14T11:56:09.036Z,41.00
2022-12-14T11:57:14.460Z,42.03
2022-12-14T11:58:24.189Z,47.58
2022-12-14T11:59:33.421Z,33.88
2022-12-14T12:01:11.433Z,44.83
2022-12-14T12:02:38.151Z,44.17
2022-12-14T12:03:49.680Z,45.60
2022-12-14T12:05:18.540Z,43.78
2022-12-14T12:06:30.382Z,49.10
2022-12-14T12:07:35.435Z,40.22
2022-12-14T12:08:40.363Z,46.90
2022-12-14T12:09:43.217Z,42.00
2022-12-14T12:10:51.146Z,45.22
2022-12-14T12:11:54.134Z,53.25
2022-12-14T12:13:00.238Z,44.70
2022-12-14T12:14:34.208Z,42.47
2022-12-14T12:15:58.677Z,44.65
2022-12-14T12:17:01.614Z,48.47
2022-12-14T12:18:41.666Z,44.22
2022-12-14T12:19:49.062Z,43.47
2022-12-14T12:20:57.528Z,44.42
2022-12-14T12:22:01.294Z,41.78
2022-12-14T12:23:10.073Z,44.13
2022-12-14T12:24:21.217Z,47.33
2022-12-14T12:25:28.450Z,41.67
2022-12-14T12:26:35.026Z,40.53
2022-12-14T12:27:38.769Z,43.08
2022-12-14T12:28:48.504Z,38.20
2022-12-14T12:29:55.735Z,43.58
2022-12-14T12:31:10.371Z,41.90
2022-12-14T12:32:14.793Z,38.53
2022-12-14T12:33:49.663Z,39.08
2022-12-14T12:34:54.407Z,42.17
2022-12-14T12:36:01.865Z,33.00
2022-12-14T12:37:27.708Z,40.03
2022-12-14T12:39:03.626Z,43.60
2022-12-14T12:40:26.903Z,42.80
2022-12-14T12:41:48.189Z,36.97
2022-12-14T12:43:32.488Z,33.10
2022-12-14T12:44:52.809Z,34.60
2022-12-14T12:46:19.092Z,41.17
2022-12-14T12:47:49.810Z,30.98
2022-12-14T12:49:03.326Z,39.25
2022-12-14T12:50:14.199Z,40.90
2022-12-14T12:51:23.262Z,34.53
2022-12-14T12:52:31.064Z,36.17
2022-12-14T12:53:43.871Z,39.55
2022-12-14T12:54:57.368Z,41.65
2022-12-14T12:56:22.531Z,36.42
2022-12-14T12:57:29.953Z,39.65
2022-12-14T12:58:34.159Z,30.80
2022-12-14T12:59:49.281Z,36.30
2022-12-14T13:00:55.637Z,28.17
2022-12-14T13:02:02.686Z,37.50
2022-12-14T13:03:23.216Z,39.08
2022-12-14T13:04:33.746Z,38.72
2022-12-14T13:05:48.284Z,37.90
2022-12-14T13:07:25.891Z,32.67
2022-12-14T13:08:33.806Z,39.47
2022-12-14T13:09:48.552Z,42.05
2022-12-14T13:12:27.795Z,30.85
2022-12-14T13:13:33.166Z,29.92
2022-12-14T13:14:39.676Z,35.53
2022-12-14T13:16:00.259Z,30.42
2022-12-14T13:17:05.397Z,29.77
2022-12-14T13:18:49.197Z,31.13
2022-12-14T13:19:52.067Z,30.42
2022-12-14T13:20:57.340Z,34.75
2022-12-14T13:22:05.206Z,31.05
2022-12-14T13:23:36.555Z,32.97
2022-12-14T13:24:33.737Z,36.42
2022-12-14T13:25:48.499Z,32.60
2022-12-14T13:27:04.658Z,28.90
2022-12-14T13:28:19.087Z,37.40
2022-12-14T13:29:40.239Z,39.88
2022-12-14T13:31:29.983Z,35.63
2022-12-14T13:32:56.374Z,28.98
2022-12-14T13:34:23.376Z,32.17
2022-12-14T13:35:39.554Z,37.03
2022-12-14T13:36:45.999Z,31.33
2022-12-14T13:38:14.377Z,32.55
2022-12-14T13:39:22.945Z,28.77
2022-12-14T13:40:28.588Z,34.22
2022-12-14T13:41:50.843Z,34.33
2022-12-14T13:43:07.965Z,30.88
2022-12-14T13:44:43.360Z,36.75
2022-12-14T13:45:49.788Z,37.50
2022-12-14T13:47:01.274Z,37.42
2022-12-14T13:48:22.361Z,30.67
2022-12-14T13:49:25.594Z,29.90
2022-12-14T13:50:38.444Z,30.13
2022-12-14T13:51:49.961Z,35.42
2022-12-14T13:52:58.683Z,30.10
2022-12-14T13:54:04.201Z,28.77
2022-12-14T13:55:39.932Z,30.63
2022-12-14T13:56:42.554Z,33.28
2022-12-14T13:57:45.312Z,32.95
2022-12-14T13:58:49.079Z,24.20
2022-12-14T13:59:54.157Z,34.17
2022-12-14T14:00:58.133Z,28.13
2022-12-14T14:02:02.365Z,30.27
2022-12-14T14:03:05.857Z,35.33
2022-12-14T14:04:11.779Z,28.15
2022-12-14T14:05:20.338Z,30.98
2022-12-14T14:06:39.994Z,35.55
2022-12-14T14:07:50.390Z,31.23
2022-12-14T14:08:53.971Z,28.60
2022-12-14T14:09:58.577Z,39.67
2022-12-14T14:11:38.159Z,39.20
2022-12-14T14:12:44.060Z,28.75
2022-12-14T14:13:50.465Z,28.75
2022-12-14T14:14:56.605Z,32.33
2022-12-14T14:16:27.410Z,28.63
2022-12-14T14:17:44.408Z,24.33
2022-12-14T14:18:49.451Z,42.70
2022-12-14T14:19:56.471Z,33.80
2022-12-14T14:21:20.106Z,32.28
2022-12-14T14:22:27.659Z,29.35
2022-12-14T14:23:32.766Z,32.80
2022-12-14T14:25:12.479Z,29.40
2022-12-14T14:26:22.703Z,27.55
2022-12-14T14:27:35.717Z,38.35
2022-12-14T14:28:38.819Z,36.42
2022-12-14T14:29:49.419Z,33.92
2022-12-14T14:30:54.900Z,35.03
2022-12-14T14:32:02.488Z,36.22
2022-12-14T14:33:44.998Z,37.78
2022-12-14T14:34:52.213Z,30.73
2022-12-14T14:36:27.226Z,34.80
2022-12-14T14:37:35.283Z,31.80
2022-12-14T14:38:38.509Z,35.67
2022-12-14T14:40:02.615Z,29.13
2022-12-14T14:41:21.151Z,36.88
2022-12-14T14:42:26.104Z,33.97
2022-12-14T14:43:38.168Z,33.47
2022-12-14T14:44:46.864Z,33.97
2022-12-14T14:45:54.770Z,38.42
2022-12-14T14:46:57.692Z,30.65
2022-12-14T14:48:02.443Z,33.10
2022-12-14T14:49:13.047Z,27.50
2022-12-14T14:50:17.021Z,45.30
2022-12-14T14:51:25.788Z,36.60
2022-12-14T14:52:40.475Z,38.38
2022-12-14T14:53:43.363Z,32.65
2022-12-14T14:55:16.203Z,31.20
2022-12-14T14:56:34.628Z,37.40
2022-12-14T14:57:56.812Z,36.47
2022-12-14T14:59:17.736Z,39.45